Date,TemperatureHighF,TemperatureAvgF,TemperatureLowF,DewpointHighF,DewpointAvgF,DewpointLowF,HumidityHigh,HumidityAvg,HumidityLow,PressureMaxIn,PressureMinIn,WindSpeedMaxMPH,WindSpeedAvgMPH,GustSpeedMaxMPH,PrecipitationSumIn
2013-3-19,75.0,75.0,75.0,67.0,67.0,67.0,75,75,75,29.97,29.97,0,-999,0,0.00
2013-3-21,73.0,73.0,73.0,41.0,40.8,40.0,32,32,30,29.85,29.85,1,1,6,0.00
2013-3-22,78.0,67.4,57.0,66.0,57.9,47.0,89,73,56,29.99,29.88,4,2,10,0.00
2013-3-23,88.0,80.2,66.0,75.0,71.3,65.0,98,76,56,29.91,29.78,4,1,18,0.00
2013-3-24,84.0,78.3,74.0,74.0,72.4,71.0,91,83,71,29.74,29.62,12,4,26,0.00
2013-3-26,48.0,48.0,48.0,32.0,31.9,31.0,54,53,52,30.13,30.10,3,3,13,0.01
2013-4-15,90.0,86.3,80.0,73.0,70.2,67.0,65,59,56,29.99,29.96,0,0,6,0.00
2013-4-16,90.0,85.4,76.0,74.0,72.9,71.0,87,67,55,30.11,30.06,4,1,13,0.00
2013-4-20,75.0,75.0,75.0,68.0,68.0,68.0,79,79,79,30.02,30.02,0,-999,0,0.00
2013-4-24,88.0,82.9,77.0,66.0,62.5,58.0,67,51,41,30.08,30.04,2,0,0,0.00
2013-4-30,91.0,79.9,66.0,73.0,68.9,64.0,94,72,45,29.98,29.88,10,1,17,0.02
2013-5-1,78.0,72.2,67.0,73.0,69.2,65.0,96,90,83,30.00,29.92,7,1,18,0.33
2013-5-2,70.0,70.0,70.0,68.0,68.0,68.0,95,95,95,29.91,29.90,3,1,4,0.00
2013-5-3,79.0,76.2,71.0,72.0,70.9,69.0,94,84,78,29.78,29.77,0,0,0,0.00
2013-5-4,84.0,83.4,83.0,69.0,68.1,68.0,60,60,59,29.68,29.67,9,8,15,0.00
2013-5-5,73.0,73.0,73.0,51.0,51.0,51.0,46,46,46,29.88,29.88,3,3,0,0.00
2013-5-7,76.0,76.0,76.0,60.0,60.0,60.0,57,57,57,30.02,30.02,1,1,0,0.00
2013-5-9,88.0,88.0,88.0,61.0,61.0,61.0,41,41,41,30.06,30.05,0,0,0,0.00
2013-5-22,85.0,81.0,80.0,75.0,74.4,73.0,84,80,67,29.91,29.90,4,3,0,0.00
2013-5-23,89.0,88.2,87.0,75.0,74.4,74.0,65,64,63,29.98,29.97,1,1,0,0.00
2013-5-27,89.0,89.0,89.0,65.0,65.0,65.0,46,46,46,30.11,30.11,2,2,0,0.00
2013-5-29,81.0,77.6,76.0,76.0,73.1,72.0,88,87,85,30.10,30.09,4,3,0,0.00
2013-5-31,88.0,84.5,80.0,77.0,74.2,73.0,84,71,65,30.07,30.01,8,4,0,0.00
2013-6-1,84.0,83.8,83.0,76.0,75.8,75.0,78,76,76,30.01,30.01,4,4,0,0.00
2013-6-4,88.0,80.2,76.0,74.0,72.8,72.0,90,80,64,29.99,29.96,1,0,0,0.00
2013-6-5,75.0,75.0,75.0,73.0,73.0,73.0,95,95,95,29.97,29.97,0,0,0,0.00
2013-6-7,89.0,89.0,89.0,77.0,76.2,76.0,68,66,66,29.86,29.86,2,0,9,0.00
2013-6-11,88.0,88.0,88.0,76.0,76.0,76.0,68,68,68,30.03,30.03,0,0,1,0.00
2013-6-19,93.0,86.1,83.0,77.0,73.9,71.0,72,67,60,30.01,29.96,2,0,0,0.00
2013-6-20,94.0,85.3,76.0,76.0,74.7,72.0,88,71,56,30.06,30.04,0,0,3,0.01
2013-6-22,77.0,77.0,77.0,74.0,74.0,74.0,89,89,89,30.09,30.09,0,0,0,0.00
2013-6-23,77.0,77.0,77.0,74.0,74.0,74.0,89,89,89,30.09,30.09,0,0,0,0.00
2013-6-25,90.0,88.8,88.0,76.0,75.4,75.0,66,65,63,30.12,30.11,0,0,0,0.00
2013-6-26,95.0,83.8,73.0,75.0,72.9,71.0,94,73,51,30.06,29.99,4,1,0,0.00
2013-6-27,95.0,86.1,74.0,76.0,74.0,73.0,97,70,49,30.03,29.98,0,0,0,0.00
2013-7-1,74.0,73.1,72.0,73.0,71.8,70.0,96,96,95,29.95,29.94,1,1,9,0.06
2013-7-2,81.0,78.5,75.0,76.0,74.9,73.0,94,89,84,30.05,30.03,3,1,0,0.00
2013-7-3,81.0,81.0,81.0,74.0,74.0,74.0,79,79,79,30.04,30.04,4,4,0,0.00
2013-7-4,86.0,79.1,73.0,78.0,74.6,71.0,93,87,78,30.11,30.06,2,1,0,0.00
2013-7-5,92.0,79.4,75.0,78.0,74.7,73.0,92,86,63,30.11,30.04,4,1,0,0.00
2013-7-6,94.0,81.0,73.0,77.0,73.8,71.0,93,81,50,30.10,30.01,5,1,11,0.11
2013-7-7,94.0,83.8,75.0,78.0,74.8,72.0,94,76,54,30.11,30.01,7,2,16,0.12
2013-7-8,95.0,81.0,75.0,78.0,72.9,-99.9,95,81,49,30.14,30.05,4,1,9,0.02
2013-7-9,94.0,83.6,75.0,77.0,74.4,72.0,91,75,51,30.14,30.04,3,0,0,0.00
2013-7-10,94.0,83.3,75.0,76.0,74.0,72.0,92,76,50,30.07,30.00,1,0,0,0.00
2013-7-11,95.0,85.5,77.0,77.0,75.4,74.0,89,73,54,29.99,29.91,6,1,0,0.00
2013-7-12,90.0,81.1,74.0,78.0,74.7,71.0,92,81,63,29.94,29.87,1,0,0,0.00
2013-7-13,81.0,75.1,72.0,74.0,72.2,70.0,95,91,77,29.98,29.89,0,0,4,0.00
2013-7-14,88.0,75.4,72.0,78.0,72.8,70.0,96,92,72,30.07,29.96,2,0,7,0.28
2013-7-15,85.0,75.8,71.0,77.0,72.6,70.0,96,90,73,30.09,29.99,3,0,1,0.01
2013-7-16,90.0,87.2,83.0,77.0,75.8,74.0,79,69,59,30.12,30.10,6,4,0,0.00
2013-7-17,90.0,84.2,75.0,77.0,75.4,72.0,92,76,63,30.13,30.07,7,3,6,0.00
2013-7-18,92.0,78.5,73.0,77.0,73.4,71.0,94,85,59,30.10,30.03,2,0,0,0.00
2013-7-19,88.0,73.6,72.0,76.0,70.8,69.0,94,91,68,30.10,30.01,6,0,19,0.90
2013-7-20,96.0,79.5,72.0,80.0,72.6,-99.9,93,82,59,30.10,30.01,3,0,0,0.00
2013-7-21,97.0,81.9,74.0,80.0,75.0,71.0,91,81,54,30.10,30.00,3,0,0,0.00
2013-7-22,85.0,75.8,74.0,75.0,72.3,71.0,91,89,71,30.10,30.04,5,0,1,0.04
2013-7-23,93.0,79.0,74.0,78.0,74.0,72.0,93,85,58,30.08,29.94,5,0,0,0.00
2013-7-24,91.0,82.5,75.0,80.0,76.1,73.0,92,81,67,29.99,29.86,6,1,0,0.00
2013-7-25,89.0,80.9,73.0,80.0,75.4,71.0,94,84,70,29.97,29.87,4,1,7,0.07
2013-7-26,95.0,83.4,76.0,79.0,75.9,74.0,93,79,57,29.98,29.92,5,0,11,0.00
2013-7-27,96.0,84.5,76.0,79.0,76.4,73.0,93,78,55,29.98,29.87,1,0,0,0.00
2013-7-28,96.0,81.3,74.0,79.0,74.8,72.0,95,82,50,30.05,29.93,1,0,0,0.00
2013-7-29,93.0,82.2,75.0,78.0,74.9,72.0,92,79,58,30.11,30.01,0,0,0,0.00
2013-7-30,98.0,88.2,78.0,78.0,76.2,72.0,95,69,44,30.15,30.06,3,1,0,0.00
2013-7-31,88.0,80.5,78.0,79.0,75.4,72.0,94,85,75,30.12,29.99,3,0,0,0.00
2013-8-1,99.0,89.2,77.0,78.0,75.2,73.0,95,66,44,30.01,29.92,1,0,0,0.00
2013-8-2,94.0,82.3,76.0,77.0,75.0,74.0,93,80,57,30.01,29.93,5,0,0,0.00
2013-8-3,94.0,80.4,75.0,77.0,74.4,73.0,94,84,59,30.06,30.00,5,1,0,0.00
2013-8-4,90.0,85.1,79.0,81.0,78.5,77.0,96,81,70,30.06,29.97,3,1,0,0.00
2013-8-5,94.0,89.5,79.0,81.0,79.4,76.0,95,73,63,29.99,29.93,6,1,0,0.00
2013-8-6,96.0,90.7,81.0,80.0,79.1,77.0,89,70,61,29.94,29.87,1,0,0,0.00
2013-8-7,97.0,88.0,78.0,79.0,76.5,73.0,87,70,55,29.95,29.88,7,1,0,0.00
2013-8-8,98.0,82.9,75.0,78.0,75.8,73.0,95,81,50,29.98,29.92,1,0,0,0.00
2013-8-21,95.0,81.8,74.0,79.0,75.4,72.0,95,83,57,30.06,30.00,6,1,23,0.41
2013-8-22,92.0,77.9,75.0,81.0,74.9,73.0,95,91,67,30.06,29.97,3,0,0,0.00
2013-8-23,92.0,92.0,92.0,78.0,78.0,78.0,64,64,64,29.97,29.97,1,1,0,0.00
2013-8-24,94.0,90.9,79.0,79.0,76.8,75.0,87,64,57,30.04,30.00,7,1,15,0.00
2013-8-25,91.0,83.1,78.0,79.0,77.2,74.0,91,82,66,30.13,30.05,3,1,0,0.00
2013-8-26,89.0,82.4,76.0,78.0,76.1,73.0,92,82,69,30.09,29.98,3,1,0,0.00
2013-8-27,92.0,81.6,74.0,75.0,73.2,71.0,94,78,51,30.04,29.96,3,1,0,0.00
2013-8-28,93.0,85.5,77.0,73.0,71.1,68.0,86,64,45,30.01,29.96,4,1,0,0.00
2013-8-29,95.0,87.3,76.0,77.0,74.3,72.0,87,67,50,30.01,29.90,0,0,0,0.00
2013-8-30,92.0,88.8,83.0,79.0,77.3,77.0,83,69,61,29.97,29.94,0,0,0,0.00
2013-8-31,96.0,92.1,84.0,77.0,75.4,73.0,80,59,49,29.96,29.87,3,1,0,0.00
2013-9-1,95.0,88.2,80.0,80.0,76.1,74.0,82,68,55,29.96,29.88,4,0,0,0.00
2013-9-3,88.0,84.2,77.0,79.0,78.0,76.0,96,82,74,29.99,29.96,0,0,0,0.00
2013-9-6,99.0,83.8,74.0,80.0,74.7,70.0,95,77,51,30.03,29.91,9,0,19,0.08
2013-9-7,93.0,79.0,73.0,78.0,73.7,72.0,96,85,57,30.00,29.89,6,0,0,0.09
2013-9-8,91.0,78.4,75.0,76.0,69.8,-99.9,94,80,57,29.94,29.89,1,0,0,0.00
2013-9-9,93.0,88.2,80.0,77.0,75.9,75.0,87,68,58,29.97,29.95,2,1,0,0.00
2013-9-10,92.0,86.8,81.0,74.0,73.0,70.0,80,65,49,30.03,29.99,4,2,0,0.00
2013-9-11,91.0,91.0,91.0,76.0,76.0,76.0,62,62,62,30.00,30.00,3,3,0,0.00
2013-9-12,91.0,82.2,79.0,76.0,75.1,73.0,89,80,62,29.93,29.89,1,0,13,0.00
2013-9-13,84.0,84.0,84.0,76.0,76.0,76.0,76,76,76,29.88,29.88,0,0,0,0.00
2013-9-15,75.0,73.8,73.0,73.0,71.8,71.0,95,94,92,30.06,29.97,0,0,3,0.64
2013-9-16,94.0,79.5,73.0,79.0,74.2,71.0,96,86,58,30.02,29.96,4,0,7,2.41
2013-9-17,83.0,76.3,73.0,76.0,73.5,72.0,96,91,77,30.01,29.93,3,0,5,0.02
2013-9-18,76.0,75.4,75.0,74.0,73.4,73.0,94,93,92,29.98,29.96,0,0,0,0.00
2013-9-19,90.0,83.8,76.0,77.0,74.6,73.0,91,75,61,30.02,29.94,5,2,0,0.00
2013-9-20,76.0,74.1,73.0,73.0,72.0,71.0,93,92,91,30.00,29.99,0,0,0,0.00
2013-9-21,95.0,86.2,76.0,73.0,71.1,69.0,85,62,46,29.83,29.75,0,0,3,0.00
2013-9-22,86.0,75.6,74.0,79.0,70.5,-99.9,96,89,74,29.84,29.74,7,0,7,0.70
2013-9-23,86.0,76.6,73.0,79.0,74.6,72.0,97,94,78,29.94,29.83,1,0,9,0.50
2013-9-24,83.0,76.5,74.0,77.0,73.8,72.0,97,91,80,29.94,29.83,3,0,0,0.06
2013-9-25,82.0,76.0,72.0,74.0,72.2,70.0,94,88,74,29.87,29.77,4,1,0,0.00
2013-9-26,91.0,81.8,73.0,79.0,73.0,66.0,95,76,48,29.85,29.75,3,0,0,0.00
2013-9-27,83.0,76.3,71.0,75.0,71.5,69.0,94,85,74,29.94,29.83,7,1,0,0.00
2013-9-28,83.0,75.8,71.0,75.0,72.0,69.0,95,88,74,29.97,29.89,5,0,5,0.03
2013-9-29,90.0,79.0,72.0,74.0,68.4,-99.9,92,74,53,29.97,29.87,1,0,0,0.00
2013-9-30,91.0,79.1,70.0,75.0,70.9,68.0,95,78,51,29.99,29.89,1,0,0,0.00
2013-10-1,81.0,77.7,75.0,74.0,72.3,71.0,87,84,77,30.04,29.98,1,0,0,0.00
2013-10-2,88.0,77.7,71.0,75.0,71.9,69.0,95,84,62,30.03,29.98,2,0,0,0.00
2013-10-3,92.0,85.3,76.0,73.0,72.3,70.0,91,66,49,30.06,29.96,2,0,0,0.00
2013-10-4,91.0,81.9,74.0,75.0,73.2,71.0,92,76,55,30.06,29.98,1,0,0,0.00